Time;durP1;ratioP1;P1;durP2;ratioP2;P2;SDS_P1;SDS_P2;PMS_P1;PMS_P2;Temp;Humidity;BMP_temperature;BMP_pressure;BME280_temperature;BME280_humidity;BME280_pressure;Samples;Min_cycle;Max_cycle;Signal;HPM_P1;HPM_P2
2022/11/08 00:03:57;;;;;;;6.63;5.13;;;4.40;99.90;;;;;;5069952;28;20699;-74
2022/11/08 00:14:46;;;;;;;7.67;5.03;;;4.30;99.90;;;;;;5133185;28;20213;-75
2022/11/08 00:17:16;;;;;;;6.37;4.77;;;4.30;99.90;;;;;;5131974;28;20217;-78
2022/11/08 00:19:47;;;;;;;7.03;5.10;;;4.30;99.90;;;;;;5123956;28;20312;-77
2022/11/08 00:22:20;;;;;;;8.37;5.30;;;4.20;99.90;;;;;;5118881;28;20229;-78
2022/11/08 00:24:50;;;;;;;6.63;4.70;;;4.20;99.90;;;;;;5117691;28;20206;-76
2022/11/08 00:27:21;;;;;;;10.93;5.57;;;4.20;99.90;;;;;;5114374;28;20209;-74
2022/11/08 00:29:52;;;;;;;7.73;5.27;;;4.20;99.90;;;;;;5114228;28;20212;-74
2022/11/08 00:32:23;;;;;;;7.23;5.17;;;4.20;99.90;;;;;;5114495;28;20209;-77
2022/11/08 00:34:53;;;;;;;7.53;4.87;;;4.10;99.90;;;;;;5114797;28;20313;-76
2022/11/08 00:37:24;;;;;;;7.20;4.90;;;4.10;99.90;;;;;;5119575;27;20225;-77
2022/11/08 00:39:52;;;;;;;6.13;4.77;;;4.00;99.90;;;;;;5145385;27;20195;-78
2022/11/08 00:42:24;;;;;;;6.60;5.27;;;4.00;99.90;;;;;;5143152;27;20229;-77
2022/11/08 00:44:54;;;;;;;6.90;4.80;;;4.00;99.90;;;;;;5120895;27;20197;-75
2022/11/08 00:47:22;;;;;;;8.23;4.87;;;4.00;99.90;;;;;;5118774;28;20212;-74
2022/11/08 00:49:50;;;;;;;8.00;4.50;;;4.00;99.90;;;;;;5118322;28;20206;-73
2022/11/08 00:52:18;;;;;;;7.47;4.40;;;4.00;99.90;;;;;;5117260;28;20699;-74
2022/11/08 00:54:46;;;;;;;6.03;4.50;;;3.90;99.90;;;;;;5117978;28;20751;-73
2022/11/08 00:57:15;;;;;;;5.37;4.20;;;3.90;99.90;;;;;;5117741;28;20218;-77
2022/11/08 00:59:43;;;;;;;6.17;4.10;;;3.90;99.90;;;;;;5117665;28;20220;-74
2022/11/08 01:02:12;;;;;;;6.10;4.10;;;3.90;99.90;;;;;;5117726;28;20209;-75
2022/11/08 01:04:40;;;;;;;5.77;4.50;;;3.90;99.90;;;;;;5117727;28;20210;-76
2022/11/08 01:07:09;;;;;;;7.10;4.80;;;3.80;99.90;;;;;;5117723;28;20206;-74
2022/11/08 01:09:40;;;;;;;6.67;4.87;;;3.80;99.90;;;;;;5117914;28;20210;-73
2022/11/08 01:12:08;;;;;;;7.13;4.47;;;3.80;99.90;;;;;;5129823;27;20293;-75
2022/11/08 01:14:37;;;;;;;8.13;4.20;;;3.70;99.90;;;;;;5137436;27;20236;-75
2022/11/08 01:17:06;;;;;;;5.47;4.20;;;3.70;99.90;;;;;;5136946;27;20205;-76
2022/11/08 01:19:36;;;;;;;5.27;4.30;;;3.70;99.90;;;;;;5121750;27;20296;-73
2022/11/08 01:22:04;;;;;;;6.83;4.50;;;3.60;99.90;;;;;;5116803;28;20257;-75
2022/11/08 01:24:35;;;;;;;7.30;4.43;;;3.60;99.90;;;;;;5117209;28;20202;-73
2022/11/08 01:27:03;;;;;;;8.67;4.20;;;3.60;99.90;;;;;;5116459;28;20265;-76
2022/11/08 01:29:31;;;;;;;6.43;4.17;;;3.60;99.90;;;;;;5116724;28;20198;-73
2022/11/08 01:31:59;;;;;;;5.77;3.90;;;3.60;99.90;;;;;;5116527;28;20198;-75
2022/11/08 01:34:29;;;;;;;8.10;4.10;;;3.60;99.90;;;;;;5116020;28;20210;-75
2022/11/08 01:37:03;;;;;;;6.17;4.30;;;3.50;99.90;;;;;;5116796;28;20669;-75
2022/11/08 01:39:32;;;;;;;5.70;4.07;;;3.50;99.90;;;;;;5115982;28;20198;-75
2022/11/08 01:42:00;;;;;;;5.30;4.33;;;3.60;99.90;;;;;;5116405;28;20288;-75
2022/11/08 01:44:28;;;;;;;6.43;4.17;;;3.50;99.90;;;;;;5116415;28;20217;-74
2022/11/08 01:46:56;;;;;;;6.43;4.33;;;3.50;99.90;;;;;;5116570;28;20281;-74
2022/11/08 01:49:46;;;;;;;5.37;3.80;;;3.50;99.90;;;;;;5115824;28;20210;-75
2022/11/08 01:52:24;;;;;;;6.27;3.80;;;3.50;99.90;;;;;;5116274;28;20194;-75
2022/11/08 01:55:07;;;;;;;4.90;3.73;;;3.50;99.90;;;;;;5116109;28;20238;-74
2022/11/08 01:57:44;;;;;;;6.00;4.23;;;3.50;99.90;;;;;;5116160;28;20218;-75
2022/11/08 02:00:16;;;;;;;5.30;3.70;;;3.50;99.90;;;;;;5116308;28;20231;-76
2022/11/08 02:02:49;;;;;;;5.20;3.97;;;3.50;99.90;;;;;;5116130;28;20214;-75
2022/11/08 02:05:25;;;;;;;4.60;3.97;;;3.40;99.90;;;;;;5116082;28;20187;-76
2022/11/08 02:07:59;;;;;;;4.87;3.50;;;3.40;99.90;;;;;;5116171;28;20224;-77
2022/11/08 02:10:36;;;;;;;5.33;3.70;;;3.40;99.90;;;;;;5121534;27;20216;-75
2022/11/08 02:13:08;;;;;;;4.63;3.43;;;3.40;99.90;;;;;;5135943;27;20574;-75
2022/11/08 02:15:42;;;;;;;5.03;3.40;;;3.40;99.90;;;;;;5135847;27;20905;-75
2022/11/08 02:18:16;;;;;;;5.97;3.70;;;3.40;99.90;;;;;;5132548;27;20208;-75
2022/11/08 02:20:59;;;;;;;5.70;3.50;;;3.30;99.90;;;;;;5115235;28;20263;-76
2022/11/08 02:23:42;;;;;;;5.67;3.63;;;3.40;99.90;;;;;;5115109;28;20699;-73
2022/11/08 02:26:12;;;;;;;5.93;3.40;;;3.30;99.90;;;;;;5115221;28;20187;-75
2022/11/08 02:28:41;;;;;;;6.13;3.47;;;3.30;99.90;;;;;;5115227;28;20214;-75
2022/11/08 02:31:15;;;;;;;5.80;3.60;;;3.30;99.90;;;;;;5115110;28;20218;-75
2022/11/08 02:33:44;;;;;;;6.40;4.30;;;3.30;99.90;;;;;;5115370;28;20206;-78
2022/11/08 02:36:15;;;;;;;6.33;4.20;;;3.30;99.90;;;;;;5124160;28;20218;-77
2022/11/08 02:38:51;;;;;;;4.97;4.13;;;3.20;99.90;;;;;;5137365;27;20213;-76
2022/11/08 02:41:29;;;;;;;5.03;3.90;;;3.20;99.90;;;;;;5136882;28;20261;-76
2022/11/08 02:43:57;;;;;;;8.37;4.93;;;3.20;99.90;;;;;;5135954;28;20221;-75
2022/11/08 02:46:28;;;;;;;6.73;5.43;;;3.20;99.90;;;;;;5130767;28;20229;-73
2022/11/08 02:48:57;;;;;;;6.47;5.50;;;3.10;99.90;;;;;;5116088;28;20212;-75
2022/11/08 02:51:26;;;;;;;7.00;4.77;;;3.10;99.90;;;;;;5116278;28;20218;-75
2022/11/08 02:53:58;;;;;;;6.43;5.00;;;3.10;99.90;;;;;;5115387;28;20212;-75
2022/11/08 02:56:26;;;;;;;9.30;5.90;;;3.10;99.90;;;;;;5114085;28;20226;-75
2022/11/08 02:58:54;;;;;;;7.67;5.80;;;3.00;99.90;;;;;;5114568;28;20213;-75
2022/11/08 03:01:24;;;;;;;8.67;5.87;;;3.00;99.90;;;;;;5114225;28;20213;-75
2022/11/08 03:03:52;;;;;;;8.13;4.97;;;2.90;99.90;;;;;;5114484;28;20214;-75
2022/11/08 03:06:20;;;;;;;8.50;5.20;;;2.90;99.90;;;;;;5114364;28;20224;-75
2022/11/08 03:08:51;;;;;;;8.23;4.97;;;2.90;99.90;;;;;;5114600;28;20292;-75
2022/11/08 03:11:21;;;;;;;6.03;4.80;;;3.00;99.90;;;;;;5115320;28;20277;-75
2022/11/08 03:13:49;;;;;;;7.37;4.60;;;2.90;99.90;;;;;;5114597;28;20206;-74
2022/11/08 03:16:17;;;;;;;7.03;4.60;;;2.90;99.90;;;;;;5114531;28;20226;-74
2022/11/08 03:18:46;;;;;;;8.57;5.10;;;2.90;99.90;;;;;;5114540;28;20206;-74
2022/11/08 03:21:14;;;;;;;6.23;4.27;;;2.90;99.90;;;;;;5114692;28;20206;-75
2022/11/08 03:23:45;;;;;;;10.10;4.60;;;2.80;99.90;;;;;;5114524;28;20582;-75
2022/11/08 03:26:13;;;;;;;6.63;4.50;;;2.80;99.90;;;;;;5114384;28;20560;-76
2022/11/08 03:28:48;;;;;;;5.87;4.60;;;2.80;99.90;;;;;;5114171;28;20296;-75
2022/11/08 03:31:16;;;;;;;6.13;4.63;;;2.80;99.90;;;;;;5113990;28;20206;-75
2022/11/08 03:33:55;;;;;;;8.43;4.63;;;2.70;99.90;;;;;;5114741;28;20197;-75
2022/11/08 03:36:24;;;;;;;7.77;4.80;;;2.70;99.90;;;;;;5114065;28;20205;-75
2022/11/08 03:38:54;;;;;;;7.77;5.07;;;2.70;99.90;;;;;;5114039;28;20206;-75
2022/11/08 03:41:24;;;;;;;6.43;4.80;;;2.70;99.90;;;;;;5114291;28;20202;-75
2022/11/08 03:43:58;;;;;;;6.20;4.90;;;2.60;99.90;;;;;;5114319;28;20209;-74
2022/11/08 03:46:28;;;;;;;5.70;4.70;;;2.60;99.90;;;;;;5114246;28;20624;-76
2022/11/08 03:48:56;;;;;;;6.67;4.67;;;2.60;99.90;;;;;;5114094;28;20221;-76
2022/11/08 03:51:24;;;;;;;5.13;4.40;;;2.50;99.90;;;;;;5113188;28;20208;-75
2022/11/08 03:53:52;;;;;;;7.37;5.13;;;2.50;99.90;;;;;;5114383;28;20201;-75
2022/11/08 03:56:20;;;;;;;8.00;4.97;;;2.60;99.90;;;;;;5113865;28;20228;-74
2022/11/08 03:58:57;;;;;;;5.83;4.40;;;2.50;99.90;;;;;;5113786;28;20198;-77
2022/11/08 04:01:26;;;;;;;8.13;5.20;;;2.50;99.90;;;;;;5113807;28;20203;-76
2022/11/08 04:03:54;;;;;;;7.57;5.40;;;2.50;99.90;;;;;;5114030;28;20301;-75
2022/11/08 04:06:23;;;;;;;6.87;4.90;;;2.50;99.90;;;;;;5114047;28;20671;-75
2022/11/08 04:08:53;;;;;;;6.50;4.90;;;2.40;99.90;;;;;;5130223;28;20206;-74
2022/11/08 04:16:55;;;;;;;7.00;5.30;;;2.30;99.90;;;;;;5158570;27;20216;-78
2022/11/08 04:22:24;;;;;;;6.63;5.37;;;2.40;99.90;;;;;;5074694;28;20231;-75
2022/11/08 04:24:53;;;;;;;6.97;5.53;;;2.40;99.90;;;;;;5123945;27;20205;-74
2022/11/08 04:27:21;;;;;;;6.70;4.80;;;2.40;99.90;;;;;;5138093;27;20205;-74
2022/11/08 04:29:50;;;;;;;6.43;4.77;;;2.30;99.90;;;;;;5137974;27;20209;-75
2022/11/08 04:32:21;;;;;;;9.87;5.00;;;2.30;99.90;;;;;;5138460;27;20659;-75
2022/11/08 04:34:51;;;;;;;8.97;5.17;;;2.30;99.90;;;;;;5137952;27;20300;-74
2022/11/08 04:37:20;;;;;;;6.40;5.00;;;2.30;99.90;;;;;;5131331;27;20234;-75
2022/11/08 04:39:48;;;;;;;6.47;4.90;;;2.30;99.90;;;;;;5135713;27;20306;-75
2022/11/08 04:42:17;;;;;;;5.27;4.57;;;2.30;99.90;;;;;;5137676;27;20671;-75
2022/11/08 04:44:45;;;;;;;7.37;5.00;;;2.30;99.90;;;;;;5138170;27;20300;-75
2022/11/08 04:47:14;;;;;;;6.37;4.80;;;2.30;99.90;;;;;;5138043;27;20216;-76
2022/11/08 04:49:48;;;;;;;5.57;4.30;;;2.30;99.90;;;;;;5137514;27;20220;-75
2022/11/08 04:52:16;;;;;;;7.00;4.83;;;2.30;99.90;;;;;;5137915;27;20185;-76
2022/11/08 04:54:47;;;;;;;6.33;5.03;;;2.30;99.90;;;;;;5137316;27;20192;-75
2022/11/08 04:57:15;;;;;;;6.03;4.77;;;2.30;99.90;;;;;;5133875;27;20246;-75
2022/11/08 04:59:49;;;;;;;6.30;5.17;;;2.30;99.90;;;;;;5117353;28;20210;-75
2022/11/08 05:02:18;;;;;;;7.43;4.80;;;2.30;99.90;;;;;;5117253;28;20735;-75
2022/11/08 05:04:48;;;;;;;6.53;4.63;;;2.30;99.90;;;;;;5117689;28;20626;-76
2022/11/08 05:07:17;;;;;;;5.73;4.57;;;2.30;99.90;;;;;;5131736;27;20209;-75
2022/11/08 05:09:47;;;;;;;9.43;5.67;;;2.30;99.90;;;;;;5125544;27;20206;-75
2022/11/08 05:12:15;;;;;;;6.57;4.63;;;2.30;99.90;;;;;;5116654;28;20239;-75
2022/11/08 05:14:46;;;;;;;7.70;4.87;;;2.30;99.90;;;;;;5117379;28;20241;-75
2022/11/08 05:17:15;;;;;;;7.17;4.90;;;2.20;99.90;;;;;;5116564;28;20218;-75
2022/11/08 05:25:21;;;;;;;7.67;5.93;;;2.10;99.90;;;;;;5116478;28;20623;-75
2022/11/08 05:27:49;;;;;;;9.07;6.13;;;2.10;99.90;;;;;;5116873;28;20190;-75
2022/11/08 05:30:18;;;;;;;10.20;8.03;;;2.10;99.90;;;;;;5116965;28;20202;-74
2022/11/08 05:32:51;;;;;;;11.63;8.60;;;2.10;99.90;;;;;;5117059;28;20206;-76
2022/11/08 05:35:24;;;;;;;8.33;7.10;;;2.10;99.90;;;;;;5133876;27;20201;-74
2022/11/08 05:37:53;;;;;;;9.97;7.60;;;2.10;99.90;;;;;;5137736;27;20235;-75
2022/11/08 05:40:21;;;;;;;10.80;7.60;;;2.10;99.90;;;;;;5137402;27;20210;-75
2022/11/08 05:42:50;;;;;;;9.90;7.20;;;2.10;99.90;;;;;;5138669;27;20288;-76
2022/11/08 05:45:18;;;;;;;9.27;7.00;;;2.10;99.90;;;;;;5139172;27;20216;-75
2022/11/08 05:47:48;;;;;;;9.80;6.47;;;2.10;99.90;;;;;;5138107;27;20599;-74
2022/11/08 05:50:18;;;;;;;9.57;6.37;;;2.10;99.90;;;;;;5137045;27;20233;-73
2022/11/08 05:52:54;;;;;;;9.50;6.10;;;2.00;99.90;;;;;;5136769;27;20663;-74
2022/11/08 05:55:22;;;;;;;6.73;5.57;;;2.00;99.90;;;;;;5137566;27;20212;-77
2022/11/08 05:57:50;;;;;;;7.00;5.57;;;2.10;99.90;;;;;;5138211;27;20222;-73
2022/11/08 06:00:19;;;;;;;7.47;5.53;;;2.20;99.90;;;;;;5143120;27;20211;-74
2022/11/08 06:02:47;;;;;;;6.00;5.00;;;2.20;99.90;;;;;;5127277;27;20609;-76
2022/11/08 06:05:16;;;;;;;7.50;5.50;;;2.20;99.90;;;;;;5127829;27;20217;-75
2022/11/08 06:07:47;;;;;;;8.00;5.97;;;2.20;99.90;;;;;;5139143;27;20248;-76
2022/11/08 06:10:17;;;;;;;7.43;5.80;;;2.20;99.90;;;;;;5140808;27;20670;-73
2022/11/08 06:12:47;;;;;;;8.20;6.10;;;2.30;99.90;;;;;;5139620;27;20241;-74
2022/11/08 06:15:16;;;;;;;8.20;6.00;;;2.30;99.90;;;;;;5140419;27;20209;-75
2022/11/08 06:17:44;;;;;;;7.70;5.97;;;2.40;99.90;;;;;;5139500;27;20221;-73
2022/11/08 06:20:17;;;;;;;7.53;6.10;;;2.50;99.90;;;;;;5138264;27;20240;-74
2022/11/08 06:22:48;;;;;;;8.27;6.00;;;2.50;99.90;;;;;;5139396;27;20255;-76
2022/11/08 06:25:17;;;;;;;11.23;6.33;;;2.60;99.90;;;;;;5139725;27;20216;-76
2022/11/08 06:27:45;;;;;;;9.53;6.87;;;2.50;99.90;;;;;;5140413;27;20233;-76
2022/11/08 06:30:15;;;;;;;8.10;6.80;;;2.50;99.90;;;;;;5140347;27;20202;-75
2022/11/08 06:32:49;;;;;;;10.17;7.00;;;2.60;99.90;;;;;;5140857;27;20205;-74
2022/11/08 06:35:18;;;;;;;9.20;6.90;;;2.60;99.90;;;;;;5128302;27;20211;-75
2022/11/08 06:37:48;;;;;;;11.87;6.30;;;2.60;99.90;;;;;;5140327;27;20225;-77
2022/11/08 06:40:20;;;;;;;10.60;6.33;;;2.60;99.90;;;;;;5158645;27;20237;-76
2022/11/08 06:42:52;;;;;;;9.53;5.77;;;2.60;99.90;;;;;;5158850;27;20170;-76
2022/11/08 06:45:21;;;;;;;10.20;5.93;;;2.70;99.90;;;;;;5159062;27;20198;-75
2022/11/08 06:47:49;;;;;;;10.47;5.97;;;2.70;99.90;;;;;;5158955;27;20209;-79
2022/11/08 06:50:20;;;;;;;9.03;5.60;;;2.80;99.90;;;;;;5156903;27;20189;-74
2022/11/08 06:52:48;;;;;;;9.20;5.67;;;2.90;99.90;;;;;;5139593;27;20209;-74
2022/11/08 06:55:19;;;;;;;8.30;5.00;;;2.90;99.90;;;;;;5147699;27;20213;-76
2022/11/08 06:57:50;;;;;;;7.77;5.10;;;3.00;99.90;;;;;;5141639;27;20316;-73
2022/11/08 07:00:25;;;;;;;8.40;5.80;;;3.10;99.90;;;;;;5135933;27;20267;-75
2022/11/08 07:02:53;;;;;;;6.63;5.37;;;3.10;99.90;;;;;;5121029;27;20221;-73
2022/11/08 07:05:25;;;;;;;6.50;5.10;;;3.10;99.90;;;;;;5138214;27;20209;-74
2022/11/08 07:07:54;;;;;;;7.10;5.20;;;3.30;99.90;;;;;;5137490;27;20647;-76
2022/11/08 07:10:29;;;;;;;9.53;4.90;;;3.40;99.90;;;;;;5136778;27;20219;-75
2022/11/08 07:13:00;;;;;;;5.33;4.40;;;3.50;99.90;;;;;;5119209;28;20237;-75
2022/11/08 07:15:28;;;;;;;7.13;4.80;;;3.60;99.90;;;;;;5117241;28;20229;-76
2022/11/08 07:18:01;;;;;;;7.53;4.43;;;3.70;99.90;;;;;;5116133;28;20271;-76
2022/11/08 07:20:29;;;;;;;6.17;4.77;;;3.80;99.90;;;;;;5124600;27;20254;-76
2022/11/08 07:22:58;;;;;;;7.43;5.20;;;3.90;99.90;;;;;;5135764;27;20217;-74
2022/11/08 07:25:32;;;;;;;8.63;4.33;;;4.00;99.90;;;;;;5136097;27;20194;-74
2022/11/08 07:28:02;;;;;;;9.10;4.97;;;4.10;99.90;;;;;;5127597;27;20550;-74
2022/11/08 07:30:32;;;;;;;5.90;4.20;;;4.30;99.90;;;;;;5116268;28;20214;-75
2022/11/08 07:33:00;;;;;;;6.50;4.23;;;4.40;99.90;;;;;;5117301;28;20262;-75
2022/11/08 07:35:28;;;;;;;5.80;4.20;;;4.60;99.90;;;;;;5115243;28;20216;-76
2022/11/08 07:37:57;;;;;;;5.60;3.90;;;4.60;99.90;;;;;;5114693;28;20236;-75
2022/11/08 07:40:25;;;;;;;8.80;4.57;;;4.60;99.90;;;;;;5114869;28;20317;-75
2022/11/08 07:42:58;;;;;;;5.17;3.60;;;4.70;99.90;;;;;;5115354;28;20220;-75
2022/11/08 07:45:42;;;;;;;5.30;3.90;;;4.80;99.90;;;;;;5117669;28;20214;-76
2022/11/08 07:48:12;;;;;;;5.23;3.77;;;4.80;99.90;;;;;;5116833;28;20652;-75
2022/11/08 07:50:41;;;;;;;5.67;4.10;;;4.80;99.90;;;;;;5127603;28;20253;-77
2022/11/08 07:53:12;;;;;;;6.30;4.07;;;5.00;99.90;;;;;;5129172;28;20206;-76
2022/11/08 07:55:41;;;;;;;6.80;4.63;;;5.30;99.90;;;;;;5114432;28;20214;-77
2022/11/08 07:58:12;;;;;;;6.80;4.23;;;5.60;99.90;;;;;;5117419;27;20226;-76
2022/11/08 08:00:43;;;;;;;7.67;4.13;;;6.10;99.90;;;;;;5095251;28;20649;-78
2022/11/08 08:03:14;;;;;;;5.07;3.90;;;6.40;99.90;;;;;;5093925;28;20231;-76
2022/11/08 08:05:44;;;;;;;5.53;3.73;;;6.90;99.90;;;;;;5114801;28;20824;-76
2022/11/08 08:08:16;;;;;;;4.53;3.43;;;7.10;99.90;;;;;;5115047;28;20483;-76
2022/11/08 08:10:44;;;;;;;3.63;3.00;;;7.70;99.90;;;;;;5113472;28;20202;-77
2022/11/08 08:13:14;;;;;;;5.40;3.10;;;7.90;99.90;;;;;;5093755;28;20211;-76
2022/11/08 08:15:48;;;;;;;4.47;2.90;;;8.20;99.90;;;;;;5094242;28;20226;-75
2022/11/08 08:18:19;;;;;;;4.03;2.90;;;8.20;99.90;;;;;;5093966;28;20305;-76
2022/11/08 08:20:50;;;;;;;5.47;2.83;;;8.40;99.90;;;;;;5094094;28;20191;-77
2022/11/08 08:23:19;;;;;;;4.87;3.10;;;8.20;99.90;;;;;;5094900;28;20293;-76
2022/11/08 08:25:48;;;;;;;3.10;2.80;;;8.60;99.90;;;;;;5094546;28;20656;-77
2022/11/08 08:28:17;;;;;;;5.53;2.80;;;8.80;99.90;;;;;;5093896;28;20700;-76
2022/11/08 08:30:45;;;;;;;5.10;3.10;;;8.90;99.90;;;;;;5094387;28;20595;-77
2022/11/08 08:33:18;;;;;;;3.80;2.90;;;8.80;99.90;;;;;;5093801;28;20664;-78
2022/11/08 08:35:56;;;;;;;4.80;2.63;;;9.30;99.90;;;;;;5094489;28;20319;-77
2022/11/08 08:38:24;;;;;;;3.53;2.53;;;9.80;99.90;;;;;;5094588;28;20312;-77
2022/11/08 08:40:53;;;;;;;3.70;2.53;;;11.20;99.90;;;;;;5093735;28;20322;-79
2022/11/08 08:43:22;;;;;;;3.97;2.50;;;12.30;99.90;;;;;;5093237;28;20210;-78
2022/11/08 08:45:53;;;;;;;3.87;2.43;;;13.10;99.90;;;;;;5093243;28;20218;-80
2022/11/08 08:48:21;;;;;;;4.13;2.30;;;13.80;99.90;;;;;;5104235;28;20266;-79
2022/11/08 08:50:49;;;;;;;4.13;2.60;;;14.40;99.90;;;;;;5093375;28;20293;-78
2022/11/08 08:53:17;;;;;;;3.50;2.40;;;15.50;99.90;;;;;;5093454;28;20207;-80
2022/11/08 08:55:47;;;;;;;3.47;2.87;;;16.80;99.90;;;;;;5093244;28;20306;-79
2022/11/08 08:58:40;;;;;;;3.83;2.20;;;17.10;99.90;;;;;;5093096;28;20229;-80
2022/11/08 09:01:10;;;;;;;3.27;2.30;;;16.30;99.90;;;;;;5097374;28;20668;-79
2022/11/08 09:03:58;;;;;;;3.60;2.17;;;17.50;99.90;;;;;;5096157;28;20230;-82
2022/11/08 09:06:26;;;;;;;3.63;2.30;;;18.50;99.90;;;;;;5096222;28;20541;-80
2022/11/08 09:08:55;;;;;;;2.83;2.20;;;19.70;96.90;;;;;;5096094;28;20203;-81
2022/11/08 09:11:23;;;;;;;4.43;2.00;;;18.40;97.10;;;;;;5096183;28;20211;-81
2022/11/08 09:13:53;;;;;;;2.85;2.30;;;18.50;97.70;;;;;;5096383;28;20211;-83
2022/11/08 09:16:21;;;;;;;3.15;1.90;;;19.10;97.20;;;;;;5096554;28;20647;-82
2022/11/08 09:18:49;;;;;;;5.15;2.22;;;18.80;96.20;;;;;;5096257;28;20219;-81
2022/11/08 09:21:23;;;;;;;3.05;2.10;;;20.70;94.10;;;;;;5096871;28;20566;-80
2022/11/08 09:23:51;;;;;;;4.60;2.40;;;19.00;93.70;;;;;;5103633;28;20281;-81
2022/11/08 09:26:21;;;;;;;2.15;2.03;;;18.00;95.80;;;;;;5116020;28;20655;-78
2022/11/08 09:28:50;;;;;;;2.47;2.28;;;17.70;97.00;;;;;;5116568;28;20198;-84
2022/11/08 09:31:20;;;;;;;2.58;2.17;;;17.80;97.90;;;;;;5116576;28;20218;-79
2022/11/08 09:33:50;;;;;;;3.90;2.20;;;18.60;96.40;;;;;;5116289;28;20669;-81
2022/11/08 09:36:18;;;;;;;3.60;2.10;;;19.20;95.00;;;;;;5115632;28;20619;-79
2022/11/08 09:38:46;;;;;;;5.00;2.13;;;19.80;95.30;;;;;;5114070;28;20233;-79
2022/11/08 09:41:59;;;;;;;2.40;2.17;;;18.30;95.50;;;;;;5116461;28;20203;-79
2022/11/08 09:45:06;;;;;;;3.08;2.22;;;19.00;95.20;;;;;;5116076;28;20218;-80
2022/11/08 09:47:38;;;;;;;2.40;2.10;;;18.00;96.20;;;;;;5100114;28;20582;-80
2022/11/08 09:50:15;;;;;;;4.17;2.50;;;16.80;97.00;;;;;;5095147;28;20581;-79
2022/11/08 09:52:48;;;;;;;5.80;2.60;;;17.10;98.40;;;;;;5095631;28;20544;-78
2022/11/08 09:55:27;;;;;;;3.93;2.30;;;16.90;99.90;;;;;;5094811;28;20213;-78
2022/11/08 09:58:18;;;;;;;2.20;1.90;;;17.10;99.90;;;;;;5095651;28;20631;-79
2022/11/08 10:00:49;;;;;;;3.53;2.57;;;18.10;98.50;;;;;;5114038;28;20264;-80
2022/11/08 10:03:22;;;;;;;4.40;2.53;;;18.80;97.20;;;;;;5115791;28;20234;-78
2022/11/08 10:06:02;;;;;;;2.87;2.10;;;18.70;96.90;;;;;;5107524;28;20666;-77
2022/11/08 10:08:34;;;;;;;3.70;2.50;;;17.10;99.00;;;;;;5095540;28;20191;-78
2022/11/08 10:11:29;;;;;;;3.87;2.20;;;16.70;99.90;;;;;;5094925;28;20195;-78
2022/11/08 10:14:11;;;;;;;2.53;2.20;;;16.30;99.90;;;;;;5095258;28;20547;-77
2022/11/08 10:16:48;;;;;;;5.10;2.20;;;16.10;99.90;;;;;;5105819;28;20206;-79
2022/11/08 10:19:46;;;;;;;3.90;2.60;;;15.90;99.90;;;;;;5094738;28;20207;-77
2022/11/08 10:22:21;;;;;;;4.50;2.47;;;14.80;99.90;;;;;;5095243;28;20191;-76
2022/11/08 10:24:59;;;;;;;4.03;2.47;;;13.60;99.90;;;;;;5095202;28;20206;-78
2022/11/08 10:27:36;;;;;;;5.17;2.87;;;13.80;99.90;;;;;;5094938;28;20255;-77
2022/11/08 10:30:13;;;;;;;4.97;2.60;;;13.90;99.90;;;;;;5095430;28;20207;-77
2022/11/08 10:32:43;;;;;;;2.83;2.20;;;14.00;99.90;;;;;;5094999;28;20187;-77
2022/11/08 10:35:21;;;;;;;3.57;2.60;;;14.20;99.90;;;;;;5097869;28;20221;-77
2022/11/08 10:37:52;;;;;;;4.17;2.67;;;15.40;99.90;;;;;;5094813;28;20301;-77
2022/11/08 10:40:31;;;;;;;5.83;2.40;;;16.00;99.90;;;;;;5097635;28;20700;-78
2022/11/08 10:43:06;;;;;;;5.87;2.20;;;16.50;99.90;;;;;;5105225;28;20197;-77
2022/11/08 10:45:37;;;;;;;3.07;2.20;;;16.10;99.90;;;;;;5110814;28;20191;-79
2022/11/08 10:48:06;;;;;;;3.27;2.13;;;16.50;99.90;;;;;;5116458;28;20226;-81
2022/11/08 10:50:43;;;;;;;5.67;2.33;;;18.00;99.90;;;;;;5106910;28;20199;-78
2022/11/08 10:53:21;;;;;;;3.00;2.07;;;19.10;99.90;;;;;;5096060;28;20254;-81
2022/11/08 10:55:58;;;;;;;2.63;1.90;;;19.10;99.90;;;;;;5095506;28;20218;-78
2022/11/08 10:58:37;;;;;;;3.83;2.03;;;19.20;99.90;;;;;;5111453;28;20265;-79
2022/11/08 11:01:12;;;;;;;5.07;2.30;;;19.60;99.70;;;;;;5114600;28;20233;-79
2022/11/08 11:03:44;;;;;;;5.68;2.60;;;19.60;99.90;;;;;;5114897;28;20228;-81
2022/11/08 11:06:29;;;;;;;2.47;2.03;;;19.10;99.50;;;;;;5096798;28;20205;-82
2022/11/08 11:09:00;;;;;;;2.63;2.30;;;19.00;99.50;;;;;;5093897;28;20235;-79
2022/11/08 11:11:36;;;;;;;4.75;2.35;;;19.50;98.90;;;;;;5107890;28;20626;-80
2022/11/08 11:14:07;;;;;;;4.30;2.87;;;19.70;99.30;;;;;;5111939;28;20206;-79
2022/11/08 11:16:47;;;;;;;2.90;2.60;;;19.20;98.90;;;;;;5112130;28;20422;-79
2022/11/08 11:19:15;;;;;;;3.27;2.10;;;19.00;99.20;;;;;;5094112;28;20210;-78
2022/11/08 11:21:57;;;;;;;5.43;2.40;;;18.60;98.80;;;;;;5093318;28;20234;-79
2022/11/08 11:24:27;;;;;;;4.03;2.37;;;18.00;98.40;;;;;;5093914;28;20532;-77
2022/11/08 11:27:02;;;;;;;3.47;2.53;;;17.10;99.90;;;;;;5094035;28;20286;-79
2022/11/08 11:29:32;;;;;;;5.07;2.30;;;16.40;99.90;;;;;;5098354;28;20211;-78
2022/11/08 11:32:22;;;;;;;2.50;2.30;;;15.90;99.90;;;;;;5095457;28;20615;-80
2022/11/08 11:34:54;;;;;;;3.87;2.20;;;15.30;99.90;;;;;;5093696;28;20555;-77
2022/11/08 11:37:34;;;;;;;2.87;2.30;;;15.40;99.90;;;;;;5093726;27;20202;-79
2022/11/08 11:40:13;;;;;;;3.53;2.30;;;15.00;99.90;;;;;;5093798;28;20638;-77
2022/11/08 11:42:52;;;;;;;3.97;2.60;;;14.50;99.90;;;;;;5096064;28;20214;-77
2022/11/08 11:45:23;;;;;;;8.43;6.13;;;14.70;99.90;;;;;;5099748;28;20217;-78
2022/11/08 11:47:55;;;;;;;4.43;2.70;;;14.50;99.90;;;;;;5113684;28;20190;-77
2022/11/08 11:50:31;;;;;;;4.53;2.37;;;14.50;99.90;;;;;;5113987;28;20205;-78
2022/11/08 11:53:04;;;;;;;3.57;2.50;;;14.50;99.90;;;;;;5113629;28;20576;-80
2022/11/08 11:56:05;;;;;;;5.73;2.90;;;14.40;99.90;;;;;;5113152;28;20205;-78
2022/11/08 11:58:58;;;;;;;5.33;3.40;;;14.50;99.90;;;;;;5079987;28;20222;-78
2022/11/08 12:01:44;;;;;;;5.20;3.50;;;14.60;99.90;;;;;;5090176;28;20226;-76
2022/11/08 12:04:45;;;;;;;3.40;2.70;;;14.90;99.90;;;;;;5100761;28;20221;-76
2022/11/08 12:07:18;;;;;;;4.10;2.60;;;15.20;99.90;;;;;;5113036;28;20198;-77
2022/11/08 12:10:05;;;;;;;3.47;2.50;;;14.90;99.90;;;;;;5113191;28;20217;-76
2022/11/08 12:12:49;;;;;;;2.77;2.47;;;14.90;99.90;;;;;;5097312;28;20203;-77
2022/11/08 12:15:31;;;;;;;4.03;2.60;;;14.80;99.90;;;;;;5113408;28;20204;-76
2022/11/08 12:18:33;;;;;;;5.13;2.50;;;14.70;99.90;;;;;;5113490;28;20305;-77
2022/11/08 12:21:13;;;;;;;4.80;2.73;;;14.70;99.90;;;;;;5100930;28;20572;-76
2022/11/08 12:24:06;;;;;;;4.00;2.60;;;14.70;99.90;;;;;;5093446;28;20199;-76
2022/11/08 12:26:44;;;;;;;5.03;2.90;;;14.70;99.90;;;;;;5093476;28;20661;-78
2022/11/08 12:29:24;;;;;;;3.40;2.40;;;14.80;99.90;;;;;;5093013;28;20643;-78
2022/11/08 12:32:21;;;;;;;3.53;2.50;;;14.70;99.90;;;;;;5093123;28;20211;-76
2022/11/08 12:35:05;;;;;;;3.90;2.30;;;14.70;99.90;;;;;;5095988;28;20203;-76
2022/11/08 12:37:49;;;;;;;4.33;2.50;;;14.50;99.90;;;;;;5097386;28;20198;-78
2022/11/08 12:40:20;;;;;;;3.90;2.40;;;14.60;99.90;;;;;;5096693;28;20213;-78
2022/11/08 12:43:12;;;;;;;3.13;2.40;;;14.80;99.90;;;;;;5097600;28;20382;-77
2022/11/08 12:45:54;;;;;;;3.67;2.40;;;14.80;99.90;;;;;;5097197;28;20207;-79
2022/11/08 12:48:34;;;;;;;2.77;2.50;;;14.70;99.90;;;;;;5096698;28;20195;-76
2022/11/08 12:51:11;;;;;;;3.30;2.50;;;14.60;99.90;;;;;;5104995;28;20198;-77
2022/11/08 12:53:52;;;;;;;2.97;2.33;;;14.50;99.90;;;;;;5118209;28;20791;-76
2022/11/08 12:56:25;;;;;;;3.57;2.23;;;14.40;99.90;;;;;;5116781;28;20582;-75
2022/11/08 12:58:56;;;;;;;3.70;2.40;;;14.30;99.90;;;;;;5112720;28;20281;-76
2022/11/08 13:01:24;;;;;;;5.03;2.50;;;14.40;99.90;;;;;;5096787;28;20211;-75
2022/11/08 13:04:23;;;;;;;3.77;2.47;;;14.20;99.90;;;;;;5096875;28;20223;-76
2022/11/08 13:07:00;;;;;;;3.33;2.47;;;14.10;99.90;;;;;;5101291;28;20203;-76
2022/11/08 13:09:38;;;;;;;5.57;3.57;;;14.20;99.90;;;;;;5097273;28;20205;-76
2022/11/08 13:12:21;;;;;;;5.43;3.53;;;14.10;99.90;;;;;;5108796;28;20698;-75
2022/11/08 13:14:51;;;;;;;2.80;2.30;;;14.00;99.90;;;;;;5137812;27;20205;-75
2022/11/08 13:17:23;;;;;;;5.37;2.70;;;14.00;99.90;;;;;;5137526;27;20214;-75
2022/11/08 13:20:27;;;;;;;5.37;2.63;;;14.10;99.90;;;;;;5096574;28;20218;-77
2022/11/08 13:22:59;;;;;;;4.50;2.60;;;14.00;99.90;;;;;;5096660;28;20213;-75
2022/11/08 13:25:41;;;;;;;8.17;3.50;;;13.80;99.90;;;;;;5097579;28;20321;-75
2022/11/08 13:28:42;;;;;;;7.30;4.10;;;13.60;99.90;;;;;;5096259;28;20214;-75
2022/11/08 13:31:20;;;;;;;6.37;3.03;;;13.40;99.90;;;;;;5096110;28;20199;-75
2022/11/08 13:34:21;;;;;;;4.80;2.60;;;13.20;99.90;;;;;;5099189;28;20222;-75
2022/11/08 13:37:08;;;;;;;8.40;2.70;;;13.00;99.90;;;;;;5099460;28;20277;-75
2022/11/08 13:40:06;;;;;;;4.83;2.53;;;13.10;99.90;;;;;;5097069;28;20222;-76
2022/11/08 13:42:59;;;;;;;5.53;3.07;;;13.20;99.90;;;;;;5089011;28;20266;-76
2022/11/08 13:45:31;;;;;;;6.40;3.03;;;13.20;99.90;;;;;;5096020;28;20673;-76
2022/11/08 13:48:31;;;;;;;5.93;3.20;;;13.30;99.90;;;;;;5096797;28;20630;-76
2022/11/08 13:51:25;;;;;;;3.73;3.10;;;13.40;99.90;;;;;;5097237;28;20202;-76